createdAt,value
2018-08-02T00:00:58.695Z,0
2018-08-02T00:01:59.263Z,0
2018-08-02T00:02:59.844Z,0
2018-08-02T00:04:00.431Z,0
2018-08-02T00:05:00.995Z,0
2018-08-02T00:06:01.558Z,0
2018-08-02T00:07:02.123Z,0
2018-08-02T00:08:02.706Z,0
2018-08-02T00:09:03.268Z,0
2018-08-02T00:10:03.834Z,0
2018-08-02T00:11:04.400Z,0
2018-08-02T00:12:04.963Z,0
2018-08-02T00:13:05.527Z,0
2018-08-02T00:14:06.090Z,0
2018-08-02T00:15:06.656Z,0
2018-08-02T00:16:07.219Z,0
2018-08-02T00:17:07.805Z,0
2018-08-02T00:18:08.374Z,0
2018-08-02T00:19:08.934Z,0
2018-08-02T00:20:09.519Z,0
2018-08-02T00:21:10.103Z,0
2018-08-02T00:22:10.667Z,0
2018-08-02T00:23:11.232Z,0
2018-08-02T00:24:11.794Z,0
2018-08-02T00:25:12.357Z,0
2018-08-02T00:26:12.921Z,0
2018-08-02T00:27:13.488Z,0
2018-08-02T00:28:14.071Z,0
2018-08-02T00:29:14.655Z,0
2018-08-02T00:30:15.242Z,0
2018-08-02T00:31:15.811Z,0
2018-08-02T00:32:16.370Z,0
2018-08-02T00:33:16.954Z,0
2018-08-02T00:34:17.517Z,0
2018-08-02T00:35:18.082Z,0
2018-08-02T00:36:18.645Z,0
2018-08-02T00:37:19.209Z,0
2018-08-02T00:38:19.774Z,0
2018-08-02T00:39:20.343Z,0
2018-08-02T00:40:20.924Z,0
2018-08-02T00:41:21.512Z,0
2018-08-02T00:42:22.096Z,0
2018-08-02T00:43:22.661Z,0
2018-08-02T00:44:23.223Z,0
2018-08-02T00:45:23.786Z,0
2018-08-02T00:46:24.373Z,0
2018-08-02T00:47:24.937Z,0
2018-08-02T00:48:25.499Z,0
2018-08-02T00:49:26.065Z,0
2018-08-02T00:50:26.627Z,0
2018-08-02T00:51:27.197Z,0
2018-08-02T00:52:27.755Z,0
2018-08-02T00:53:28.319Z,0
2018-08-02T00:54:28.883Z,0
2018-08-02T00:55:29.467Z,0
2018-08-02T00:56:30.032Z,0
2018-08-02T00:57:30.598Z,0
2018-08-02T00:58:31.188Z,0
2018-08-02T00:59:31.741Z,0
2018-08-02T01:00:32.305Z,0
2018-08-02T01:01:32.870Z,0
2018-08-02T01:02:33.434Z,0
2018-08-02T01:03:34.000Z,0
2018-08-02T01:04:34.562Z,0
2018-08-02T01:05:35.125Z,0
2018-08-02T01:06:35.688Z,0
2018-08-02T01:07:36.251Z,0
2018-08-02T01:08:36.813Z,0
2018-08-02T01:09:37.377Z,0
2018-08-02T01:10:37.941Z,0
2018-08-02T01:11:38.505Z,0
2018-08-02T01:12:39.069Z,0
2018-08-02T01:13:39.632Z,0
2018-08-02T01:14:40.196Z,0
2018-08-02T01:15:40.758Z,0
2018-08-02T01:16:41.322Z,0
2018-08-02T01:17:41.906Z,0
2018-08-02T01:18:42.471Z,0
2018-08-02T01:19:43.034Z,0
2018-08-02T01:20:43.599Z,0
2018-08-02T01:21:44.159Z,0
2018-08-02T01:22:44.722Z,0
2018-08-02T01:23:45.287Z,0
2018-08-02T01:24:45.853Z,0
2018-08-02T01:25:46.413Z,0
2018-08-02T01:26:46.976Z,0
2018-08-02T01:27:47.541Z,0
2018-08-02T01:28:48.103Z,0
2018-08-02T01:29:48.665Z,0
2018-08-02T01:30:49.232Z,0
2018-08-02T01:31:49.792Z,0
2018-08-02T01:32:50.357Z,0
2018-08-02T01:33:50.921Z,0
2018-08-02T01:34:51.482Z,0
2018-08-02T01:35:52.046Z,0
2018-08-02T01:36:52.631Z,0
2018-08-02T01:37:53.193Z,0
2018-08-02T01:38:53.759Z,0
2018-08-02T01:39:54.343Z,0
2018-08-02T01:40:54.907Z,0
2018-08-02T01:41:55.471Z,0
2018-08-02T01:42:56.037Z,0
2018-08-02T01:43:56.633Z,0
2018-08-02T01:44:57.160Z,0
2018-08-02T01:45:57.725Z,0
2018-08-02T01:46:58.285Z,0
2018-08-02T01:47:58.868Z,0
2018-08-02T01:48:59.411Z,0
2018-08-02T01:50:00.004Z,0
2018-08-02T01:51:00.539Z,0
2018-08-02T01:52:01.101Z,0
2018-08-02T01:53:01.666Z,0
2018-08-02T01:54:02.227Z,0
2018-08-02T01:55:02.792Z,0
2018-08-02T01:56:03.354Z,0
2018-08-02T01:57:03.918Z,0
2018-08-02T01:58:04.480Z,0
2018-08-02T01:59:05.064Z,0
2018-08-02T02:00:05.631Z,0
2018-08-02T02:01:06.212Z,0
2018-08-02T02:02:06.797Z,0
2018-08-02T02:03:07.360Z,0
2018-08-02T02:04:07.924Z,0
2018-08-02T02:05:08.487Z,0
2018-08-02T02:06:09.070Z,0
2018-08-02T02:07:09.633Z,0
2018-08-02T02:08:10.198Z,0
2018-08-02T02:09:10.763Z,0
2018-08-02T02:10:11.326Z,0
2018-08-02T02:11:11.888Z,0
2018-08-02T02:12:12.449Z,0
2018-08-02T02:13:13.034Z,0
2018-08-02T02:14:13.598Z,0
2018-08-02T02:15:14.182Z,0
2018-08-02T02:16:14.744Z,0
2018-08-02T02:17:15.311Z,0
2018-08-02T02:18:15.893Z,0
2018-08-02T02:19:16.457Z,0
2018-08-02T02:20:17.051Z,0
2018-08-02T02:21:17.605Z,0
2018-08-02T02:22:18.169Z,0
2018-08-02T02:23:18.731Z,0
2018-08-02T02:24:19.293Z,0
2018-08-02T02:25:19.879Z,0
2018-08-02T02:26:20.440Z,0
2018-08-02T02:27:21.006Z,0
2018-08-02T02:28:21.566Z,0
2018-08-02T02:29:22.130Z,0
2018-08-02T02:30:22.692Z,0
2018-08-02T02:31:23.255Z,0
2018-08-02T02:32:23.818Z,0
2018-08-02T02:33:24.382Z,0
2018-08-02T02:34:24.945Z,0
2018-08-02T02:35:25.506Z,0
2018-08-02T02:36:26.074Z,0
2018-08-02T02:37:26.656Z,0
2018-08-02T02:38:27.218Z,0
2018-08-02T02:39:27.781Z,0
2018-08-02T02:40:28.346Z,0
2018-08-02T02:41:28.910Z,0
2018-08-02T02:42:29.472Z,0
2018-08-02T02:43:30.041Z,0
2018-08-02T02:44:30.598Z,0
2018-08-02T02:45:31.164Z,0
2018-08-02T02:46:31.726Z,0
2018-08-02T02:47:32.287Z,0
2018-08-02T02:48:32.849Z,0
2018-08-02T02:49:33.412Z,0
2018-08-02T02:50:33.977Z,0
2018-08-02T02:51:34.540Z,0
2018-08-02T02:52:35.103Z,0
2018-08-02T02:53:35.665Z,0
2018-08-02T02:54:36.229Z,0
2018-08-02T02:55:36.792Z,0
2018-08-02T02:56:37.356Z,0
2018-08-02T02:57:37.918Z,0
2018-08-02T02:58:38.479Z,0
2018-08-02T02:59:39.043Z,0
2018-08-02T03:00:39.607Z,0
2018-08-02T03:01:40.169Z,0
2018-08-02T03:02:40.732Z,0
2018-08-02T03:03:41.296Z,0
2018-08-02T03:04:41.859Z,0
2018-08-02T03:05:42.421Z,0
2018-08-02T03:06:42.990Z,0
2018-08-02T03:07:43.552Z,0
2018-08-02T03:08:44.135Z,0
2018-08-02T03:09:44.699Z,0
2018-08-02T03:10:45.260Z,0
2018-08-02T03:11:45.824Z,0
2018-08-02T03:12:46.386Z,0
2018-08-02T03:13:46.969Z,0
2018-08-02T03:14:47.531Z,0
2018-08-02T03:15:48.094Z,0
2018-08-02T03:16:48.655Z,0
2018-08-02T03:17:49.221Z,0
2018-08-02T03:18:49.780Z,0
2018-08-02T03:19:50.342Z,0
2018-08-02T03:20:50.928Z,0
2018-08-02T03:21:51.510Z,0
2018-08-02T03:22:52.073Z,0
2018-08-02T03:23:52.636Z,0
2018-08-02T03:24:53.196Z,0
2018-08-02T03:25:53.759Z,0
2018-08-02T03:26:54.321Z,0
2018-08-02T03:27:54.884Z,0
2018-08-02T03:28:55.448Z,0
2018-08-02T03:29:56.027Z,0
2018-08-02T03:30:56.574Z,0
2018-08-02T03:31:57.140Z,0
2018-08-02T03:32:57.721Z,0
2018-08-02T03:33:58.282Z,0
2018-08-02T03:34:58.846Z,0
2018-08-02T03:35:59.410Z,0
2018-08-02T03:36:59.974Z,0
2018-08-02T03:38:00.559Z,0
2018-08-02T03:39:01.121Z,0
2018-08-02T03:40:01.686Z,0
2018-08-02T03:41:02.251Z,0
2018-08-02T03:42:02.813Z,0
2018-08-02T03:43:03.377Z,0
2018-08-02T03:44:03.939Z,0
2018-08-02T03:45:04.504Z,0
2018-08-02T03:46:05.073Z,0
2018-08-02T03:47:05.654Z,0
2018-08-02T03:48:06.218Z,0
2018-08-02T03:49:06.782Z,0
2018-08-02T03:50:07.346Z,0
2018-08-02T03:51:07.913Z,0
2018-08-02T03:52:08.479Z,0
2018-08-02T03:53:09.065Z,0
2018-08-02T03:54:09.630Z,5
2018-08-02T03:55:10.195Z,5
2018-08-02T03:56:10.759Z,5
2018-08-02T03:57:11.327Z,5
2018-08-02T03:58:11.890Z,5
2018-08-02T03:59:12.455Z,10
2018-08-02T04:00:13.021Z,10
2018-08-02T04:01:13.590Z,10
2018-08-02T04:02:14.152Z,10
2018-08-02T04:03:14.720Z,10
2018-08-02T04:04:15.284Z,10
2018-08-02T04:05:15.848Z,15
2018-08-02T04:06:16.412Z,15
2018-08-02T04:07:16.979Z,15
2018-08-02T04:08:17.564Z,20
2018-08-02T04:09:18.130Z,20
2018-08-02T04:10:18.695Z,20
2018-08-02T04:11:19.259Z,25
2018-08-02T04:12:19.824Z,25
2018-08-02T04:13:20.391Z,25
2018-08-02T04:14:20.958Z,30
2018-08-02T04:15:21.526Z,30
2018-08-02T04:16:22.091Z,30
2018-08-02T04:17:22.658Z,35
2018-08-02T04:18:23.247Z,35
2018-08-02T04:19:23.811Z,35
2018-08-02T04:20:24.377Z,40
2018-08-02T04:21:24.945Z,40
2018-08-02T04:22:25.510Z,40
2018-08-02T04:23:26.077Z,45
2018-08-02T04:24:26.644Z,45
2018-08-02T04:25:27.211Z,45
2018-08-02T04:26:27.796Z,50
2018-08-02T04:27:28.364Z,50
2018-08-02T04:28:28.933Z,50
2018-08-02T04:29:29.502Z,55
2018-08-02T04:30:30.068Z,55
2018-08-02T04:31:30.634Z,55
2018-08-02T04:32:31.200Z,55
2018-08-02T04:33:31.791Z,60
2018-08-02T04:34:32.357Z,60
2018-08-02T04:35:32.924Z,65
2018-08-02T04:36:33.515Z,65
2018-08-02T04:37:34.080Z,70
2018-08-02T04:38:34.647Z,70
2018-08-02T04:39:35.213Z,75
2018-08-02T04:40:35.782Z,80
2018-08-02T04:41:36.349Z,80
2018-08-02T04:42:36.937Z,90
2018-08-02T04:43:37.503Z,95
2018-08-02T04:44:38.073Z,105
2018-08-02T04:45:38.662Z,100
2018-08-02T04:46:39.233Z,105
2018-08-02T04:47:39.822Z,110
2018-08-02T04:48:40.388Z,110
2018-08-02T04:49:40.977Z,115
2018-08-02T04:50:41.547Z,115
2018-08-02T04:51:42.116Z,120
2018-08-02T04:52:42.685Z,125
2018-08-02T04:53:43.255Z,125
2018-08-02T04:54:43.828Z,120
2018-08-02T04:55:44.400Z,120
2018-08-02T04:56:44.970Z,125
2018-08-02T04:57:45.539Z,130
2018-08-02T04:58:46.107Z,120
2018-08-02T04:59:46.706Z,120
2018-08-02T05:00:47.265Z,135
2018-08-02T05:01:47.843Z,145
2018-08-02T05:02:48.405Z,150
2018-08-02T05:03:48.976Z,155
2018-08-02T05:04:49.548Z,160
2018-08-02T05:05:50.120Z,160
2018-08-02T05:06:50.691Z,165
2018-08-02T05:07:51.263Z,165
2018-08-02T05:08:51.840Z,170
2018-08-02T05:09:52.412Z,155
2018-08-02T05:10:52.986Z,150
2018-08-02T05:11:53.577Z,165
2018-08-02T05:12:54.151Z,190
2018-08-02T05:13:54.744Z,195
2018-08-02T05:14:55.321Z,200
2018-08-02T05:15:55.916Z,210
2018-08-02T05:16:56.487Z,220
2018-08-02T05:17:57.060Z,215
2018-08-02T05:18:57.634Z,220
2018-08-02T05:19:58.208Z,225
2018-08-02T05:20:58.930Z,230
2018-08-02T05:21:59.372Z,235
2018-08-02T05:22:59.982Z,240
2018-08-02T05:24:00.525Z,245
2018-08-02T05:25:01.106Z,250
2018-08-02T05:26:01.699Z,260
2018-08-02T05:27:02.275Z,260
2018-08-02T05:28:02.876Z,265
2018-08-02T05:29:03.472Z,265
2018-08-02T05:30:04.051Z,270
2018-08-02T05:31:04.630Z,275
2018-08-02T05:32:05.228Z,280
2018-08-02T05:33:05.829Z,280
2018-08-02T05:34:06.427Z,285
2018-08-02T05:35:07.145Z,290
2018-08-02T05:36:07.745Z,295
2018-08-02T05:37:08.177Z,305
2018-08-02T05:38:08.753Z,280
2018-08-02T05:39:09.330Z,240
2018-08-02T05:40:09.907Z,230
2018-08-02T05:41:10.481Z,230
2018-08-02T05:42:11.078Z,235
2018-08-02T05:43:11.653Z,240
2018-08-02T05:44:12.229Z,245
2018-08-02T05:45:12.826Z,250
2018-08-02T05:46:13.403Z,255
2018-08-02T05:47:13.977Z,270
2018-08-02T05:48:14.557Z,280
2018-08-02T05:49:15.133Z,290
2018-08-02T05:50:15.711Z,305
2018-08-02T05:51:16.289Z,320
2018-08-02T05:52:16.889Z,320
2018-08-02T05:53:17.469Z,290
2018-08-02T05:54:18.046Z,275
2018-08-02T05:55:18.645Z,320
2018-08-02T05:56:19.247Z,375
2018-08-02T05:57:19.844Z,395
2018-08-02T05:58:20.422Z,400
2018-08-02T05:59:21.000Z,410
2018-08-02T06:00:21.577Z,420
2018-08-02T06:01:22.157Z,425
2018-08-02T06:02:22.737Z,420
2018-08-02T06:03:23.317Z,425
2018-08-02T06:04:23.901Z,425
2018-08-02T06:05:24.524Z,425
2018-08-02T06:06:25.077Z,425
2018-08-02T06:07:25.676Z,435
2018-08-02T06:08:26.281Z,435
2018-08-02T06:09:26.882Z,390
2018-08-02T06:10:27.485Z,345
2018-08-02T06:11:28.057Z,380
2018-08-02T06:12:28.641Z,440
2018-08-02T06:13:29.242Z,445
2018-08-02T06:14:29.822Z,455
2018-08-02T06:15:30.403Z,435
2018-08-02T06:16:31.027Z,420
2018-08-02T06:17:31.587Z,455
2018-08-02T06:18:32.165Z,445
2018-08-02T06:19:32.744Z,450
2018-08-02T06:20:33.326Z,465
2018-08-02T06:21:33.906Z,490
2018-08-02T06:22:34.489Z,505
2018-08-02T06:23:35.069Z,525
2018-08-02T06:24:35.649Z,530
2018-08-02T06:25:36.236Z,525
2018-08-02T06:26:36.814Z,515
2018-08-02T06:27:37.397Z,490
2018-08-02T06:28:37.980Z,485
2018-08-02T06:29:38.562Z,470
2018-08-02T06:30:39.143Z,450
2018-08-02T06:31:39.723Z,420
2018-08-02T06:32:40.306Z,470
2018-08-02T06:33:40.906Z,490
2018-08-02T06:34:41.490Z,530
2018-08-02T06:35:42.069Z,540
2018-08-02T06:36:42.670Z,530
2018-08-02T06:37:43.250Z,565
2018-08-02T06:38:43.832Z,570
2018-08-02T06:39:44.415Z,590
2018-08-02T06:40:45.000Z,605
2018-08-02T06:41:45.601Z,605
2018-08-02T06:42:46.183Z,640
2018-08-02T06:43:46.765Z,645
2018-08-02T06:44:47.345Z,655
2018-08-02T06:45:47.935Z,675
2018-08-02T06:46:48.511Z,685
2018-08-02T06:47:49.094Z,695
2018-08-02T06:48:49.675Z,705
2018-08-02T06:49:50.260Z,720
2018-08-02T06:50:50.842Z,735
2018-08-02T06:51:51.424Z,725
2018-08-02T06:52:52.007Z,735
2018-08-02T06:53:52.587Z,740
2018-08-02T06:54:53.169Z,745
2018-08-02T06:55:53.752Z,755
2018-08-02T06:56:54.334Z,760
2018-08-02T06:57:54.916Z,770
2018-08-02T06:58:55.556Z,780
2018-08-02T06:59:56.103Z,785
2018-08-02T07:00:56.687Z,790
2018-08-02T07:01:57.271Z,795
2018-08-02T07:02:57.876Z,785
2018-08-02T07:03:58.563Z,765
2018-08-02T07:04:59.146Z,740
2018-08-02T07:05:59.748Z,755
2018-08-02T07:07:00.319Z,785
2018-08-02T07:08:00.921Z,785
2018-08-02T07:09:01.505Z,790
2018-08-02T07:10:02.094Z,765
2018-08-02T07:11:02.670Z,765
2018-08-02T07:12:03.252Z,760
2018-08-02T07:13:03.836Z,755
2018-08-02T07:14:04.440Z,685
2018-08-02T07:15:05.046Z,590
2018-08-02T07:16:05.632Z,585
2018-08-02T07:17:06.218Z,615
2018-08-02T07:18:06.839Z,660
2018-08-02T07:19:07.380Z,745
2018-08-02T07:20:07.962Z,770
2018-08-02T07:21:08.544Z,745
2018-08-02T07:22:09.128Z,690
2018-08-02T07:23:09.710Z,645
2018-08-02T07:24:10.292Z,715
2018-08-02T07:25:10.873Z,720
2018-08-02T07:26:11.454Z,825
2018-08-02T07:27:12.040Z,785
2018-08-02T07:28:12.618Z,795
2018-08-02T07:29:13.201Z,790
2018-08-02T07:30:13.785Z,810
2018-08-02T07:31:14.367Z,850
2018-08-02T07:32:14.950Z,865
2018-08-02T07:33:15.534Z,850
2018-08-02T07:34:16.114Z,885
2018-08-02T07:35:16.693Z,920
2018-08-02T07:36:17.274Z,925
2018-08-02T07:37:17.879Z,1000
2018-08-02T07:38:18.464Z,970
2018-08-02T07:39:19.065Z,1055
2018-08-02T07:40:19.648Z,1010
2018-08-02T07:41:20.252Z,1040
2018-08-02T07:42:20.834Z,1050
2018-08-02T07:43:21.591Z,1060
2018-08-02T07:44:21.998Z,1100
2018-08-02T07:45:22.581Z,1125
2018-08-02T07:46:23.189Z,1115
2018-08-02T07:47:23.773Z,1145
2018-08-02T07:48:24.369Z,1130
2018-08-02T07:49:24.948Z,1170
2018-08-02T07:50:25.549Z,1205
2018-08-02T07:51:26.133Z,1200
2018-08-02T07:52:26.715Z,1205
2018-08-02T07:53:27.297Z,1215
2018-08-02T07:54:27.881Z,1215
2018-08-02T07:55:28.466Z,1210
2018-08-02T07:56:29.076Z,1215
2018-08-02T07:57:29.678Z,1225
2018-08-02T07:58:30.265Z,1215
2018-08-02T07:59:30.849Z,1210
2018-08-02T08:00:31.433Z,1225
2018-08-02T08:01:32.020Z,1230
2018-08-02T08:02:32.603Z,1240
2018-08-02T08:03:33.211Z,1245
2018-08-02T08:04:33.790Z,1255
2018-08-02T08:05:34.374Z,1265
2018-08-02T08:06:34.960Z,1265
2018-08-02T08:07:35.545Z,1280
2018-08-02T08:08:36.131Z,1265
2018-08-02T08:09:36.717Z,1270
2018-08-02T08:10:37.302Z,1285
2018-08-02T08:11:37.887Z,1285
2018-08-02T08:12:38.484Z,1290
2018-08-02T08:13:39.059Z,1300
2018-08-02T08:14:39.642Z,1305
2018-08-02T08:15:40.224Z,1310
2018-08-02T08:16:40.808Z,1315
2018-08-02T08:17:41.391Z,1325
2018-08-02T08:18:41.976Z,1340
2018-08-02T08:19:42.584Z,1345
2018-08-02T08:20:43.177Z,1360
2018-08-02T08:21:43.798Z,1355
2018-08-02T08:22:44.382Z,1355
2018-08-02T08:23:44.980Z,1380
2018-08-02T08:24:45.565Z,1380
2018-08-02T08:25:46.151Z,1380
2018-08-02T08:26:46.751Z,1375
2018-08-02T08:27:47.322Z,1390
2018-08-02T08:28:47.909Z,1400
2018-08-02T08:29:48.537Z,1405
2018-08-02T08:30:49.122Z,1405
2018-08-02T08:31:49.709Z,1410
2018-08-02T08:32:50.300Z,1420
2018-08-02T08:33:50.878Z,1415
2018-08-02T08:34:51.483Z,1430
2018-08-02T08:35:52.077Z,1445
2018-08-02T08:36:52.654Z,1435
2018-08-02T08:37:53.238Z,1445
2018-08-02T08:38:53.844Z,1460
2018-08-02T08:39:54.482Z,1465
2018-08-02T08:40:55.013Z,1485
2018-08-02T08:41:55.598Z,1505
2018-08-02T08:42:56.182Z,1515
2018-08-02T08:43:56.767Z,1525
2018-08-02T08:44:57.352Z,1540
2018-08-02T08:45:57.937Z,1535
2018-08-02T08:46:58.520Z,1535
2018-08-02T08:47:59.106Z,1530
2018-08-02T08:48:59.692Z,1485
2018-08-02T08:50:00.278Z,1530
2018-08-02T08:51:00.892Z,1525
2018-08-02T08:52:01.450Z,1545
2018-08-02T08:53:02.035Z,1560
2018-08-02T08:54:02.623Z,1560
2018-08-02T08:55:03.226Z,1565
2018-08-02T08:56:03.813Z,1575
2018-08-02T08:57:04.394Z,1585
2018-08-02T08:58:04.980Z,1595
2018-08-02T08:59:05.585Z,1615
2018-08-02T09:00:06.202Z,1625
2018-08-02T09:01:06.753Z,1635
2018-08-02T09:02:07.338Z,1625
2018-08-02T09:03:07.973Z,1615
2018-08-02T09:04:08.508Z,1630
2018-08-02T09:05:09.090Z,1615
2018-08-02T09:06:09.674Z,1605
2018-08-02T09:07:10.259Z,1625
2018-08-02T09:08:10.843Z,1655
2018-08-02T09:09:11.452Z,1655
2018-08-02T09:10:12.056Z,1675
2018-08-02T09:11:12.641Z,1685
2018-08-02T09:12:13.227Z,1685
2018-08-02T09:13:13.812Z,1710
2018-08-02T09:14:14.397Z,1725
2018-08-02T09:15:14.981Z,1725
2018-08-02T09:16:15.564Z,1725
2018-08-02T09:17:16.147Z,1725
2018-08-02T09:18:16.731Z,1725
2018-08-02T09:19:17.315Z,1745
2018-08-02T09:20:17.899Z,1765
2018-08-02T09:21:18.484Z,1760
2018-08-02T09:22:19.068Z,1775
2018-08-02T09:23:19.655Z,1780
2018-08-02T09:24:20.235Z,1765
2018-08-02T09:25:20.821Z,1760
2018-08-02T09:26:21.406Z,1805
2018-08-02T09:27:21.994Z,1805
2018-08-02T09:28:22.579Z,1820
2018-08-02T09:29:23.165Z,1825
2018-08-02T09:30:23.752Z,1840
2018-08-02T09:31:24.342Z,1845
2018-08-02T09:32:24.937Z,1865
2018-08-02T09:33:25.752Z,1880
2018-08-02T09:34:26.336Z,1890
2018-08-02T09:35:26.919Z,1895
2018-08-02T09:36:27.504Z,1900
2018-08-02T09:37:28.093Z,1875
2018-08-02T09:38:28.703Z,1890
2018-08-02T09:39:29.285Z,1845
2018-08-02T09:40:29.869Z,1870
2018-08-02T09:41:30.453Z,1880
2018-08-02T09:42:31.038Z,1910
2018-08-02T09:43:31.623Z,1910
2018-08-02T09:44:32.206Z,1910
2018-08-02T09:45:32.794Z,1950
2018-08-02T09:46:33.401Z,1955
2018-08-02T09:47:33.983Z,1970
2018-08-02T09:48:34.568Z,1985
2018-08-02T09:49:35.173Z,1990
2018-08-02T09:50:35.756Z,1970
2018-08-02T09:51:36.341Z,1925
2018-08-02T09:52:36.927Z,1960
2018-08-02T09:53:37.513Z,2000
2018-08-02T09:54:38.100Z,1990
2018-08-02T09:55:38.686Z,2025
2018-08-02T09:56:39.294Z,2050
2018-08-02T09:57:39.857Z,2085
2018-08-02T09:58:40.443Z,2065
2018-08-02T09:59:41.029Z,2090
2018-08-02T10:00:41.615Z,2090
2018-08-02T10:01:42.201Z,2100
2018-08-02T10:02:42.806Z,2095
2018-08-02T10:03:43.392Z,2145
2018-08-02T10:04:43.975Z,2140
2018-08-02T10:05:44.559Z,2135
2018-08-02T10:06:45.147Z,2080
2018-08-02T10:07:45.732Z,2070
2018-08-02T10:08:46.319Z,2085
2018-08-02T10:09:46.904Z,2135
2018-08-02T10:10:47.491Z,2185
2018-08-02T10:11:48.077Z,2190
2018-08-02T10:12:48.663Z,2165
2018-08-02T10:13:49.250Z,2120
2018-08-02T10:14:49.836Z,2110
2018-08-02T10:15:50.422Z,2105
2018-08-02T10:16:51.006Z,2115
2018-08-02T10:17:51.590Z,2145
2018-08-02T10:18:52.173Z,2145
2018-08-02T10:19:52.757Z,2140
2018-08-02T10:20:53.342Z,2130
2018-08-02T10:21:53.927Z,2140
2018-08-02T10:22:54.514Z,2160
2018-08-02T10:23:55.099Z,2195
2018-08-02T10:24:55.683Z,2215
2018-08-02T10:25:56.272Z,2210
2018-08-02T10:26:56.852Z,2205
2018-08-02T10:27:57.437Z,2210
2018-08-02T10:28:58.023Z,2220
2018-08-02T10:29:58.609Z,2220
2018-08-02T10:30:59.228Z,2220
2018-08-02T10:31:59.781Z,2235
2018-08-02T10:33:00.367Z,2230
2018-08-02T10:34:00.953Z,2255
2018-08-02T10:35:01.540Z,2295
2018-08-02T10:36:02.125Z,2305
2018-08-02T10:37:02.709Z,2315
2018-08-02T10:38:03.294Z,2325
2018-08-02T10:39:03.878Z,2330
2018-08-02T10:40:04.462Z,2350
2018-08-02T10:41:05.047Z,2300
2018-08-02T10:42:05.631Z,2315
2018-08-02T10:43:06.238Z,2310
2018-08-02T10:44:06.833Z,2300
2018-08-02T10:45:07.411Z,2315
2018-08-02T10:46:07.995Z,2350
2018-08-02T10:47:08.579Z,2345
2018-08-02T10:48:09.164Z,2365
2018-08-02T10:49:09.749Z,2335
2018-08-02T10:50:10.331Z,2325
2018-08-02T10:51:10.919Z,2345
2018-08-02T10:52:11.504Z,2385
2018-08-02T10:53:12.090Z,2380
2018-08-02T10:54:12.676Z,2390
2018-08-02T10:55:13.262Z,2415
2018-08-02T10:56:13.925Z,2430
2018-08-02T10:57:14.436Z,2480
2018-08-02T10:58:15.017Z,2530
2018-08-02T10:59:15.601Z,2545
2018-08-02T11:00:16.189Z,2530
2018-08-02T11:01:16.788Z,2540
2018-08-02T11:02:17.361Z,2555
2018-08-02T11:03:17.947Z,2565
2018-08-02T11:04:18.533Z,2565
2018-08-02T11:05:19.119Z,2555
2018-08-02T11:06:19.705Z,2540
2018-08-02T11:07:20.314Z,2560
2018-08-02T11:08:20.899Z,2555
2018-08-02T11:09:21.487Z,2545
2018-08-02T11:10:22.070Z,2550
2018-08-02T11:11:22.678Z,2595
2018-08-02T11:12:23.262Z,2630
2018-08-02T11:13:23.845Z,2660
2018-08-02T11:14:24.430Z,2665
2018-08-02T11:15:25.028Z,2715
2018-08-02T11:16:25.601Z,2740
2018-08-02T11:17:26.186Z,2745
2018-08-02T11:18:26.771Z,2795
2018-08-02T11:19:27.357Z,2810
2018-08-02T11:20:27.943Z,2810
2018-08-02T11:21:28.529Z,2800
2018-08-02T11:22:29.117Z,2805
2018-08-02T11:23:29.704Z,2835
2018-08-02T11:24:30.289Z,2880
2018-08-02T11:25:30.878Z,2915
2018-08-02T11:26:31.486Z,2925
2018-08-02T11:27:32.072Z,2935
2018-08-02T11:28:32.659Z,2910
2018-08-02T11:29:33.245Z,2915
2018-08-02T11:30:33.829Z,2935
2018-08-02T11:31:34.413Z,2945
2018-08-02T11:32:34.998Z,2925
2018-08-02T11:33:35.584Z,2890
2018-08-02T11:34:36.169Z,2800
2018-08-02T11:35:36.780Z,2760
2018-08-02T11:36:37.381Z,2770
2018-08-02T11:37:38.025Z,2750
2018-08-02T11:38:38.563Z,2775
2018-08-02T11:39:39.147Z,2775
2018-08-02T11:40:39.733Z,2725
2018-08-02T11:41:40.320Z,2715
2018-08-02T11:42:40.906Z,2710
2018-08-02T11:43:41.494Z,2685
2018-08-02T11:44:42.081Z,2665
2018-08-02T11:45:42.667Z,2665
2018-08-02T11:46:43.277Z,2715
2018-08-02T11:47:43.859Z,2745
2018-08-02T11:48:44.444Z,2780
2018-08-02T11:49:45.029Z,2780
2018-08-02T11:50:45.644Z,2745
2018-08-02T11:51:46.255Z,2750
2018-08-02T11:52:46.833Z,2735
2018-08-02T11:53:47.418Z,2695
2018-08-02T11:54:48.027Z,2695
2018-08-02T11:55:48.612Z,2740
2018-08-02T11:56:49.243Z,2745
2018-08-02T11:57:49.783Z,2770
2018-08-02T11:58:50.369Z,2845
2018-08-02T11:59:50.955Z,2935
2018-08-02T12:00:51.539Z,2975
2018-08-02T12:01:52.177Z,2975
2018-08-02T12:02:52.709Z,2960
2018-08-02T12:03:53.367Z,2945
2018-08-02T12:04:53.882Z,2945
2018-08-02T12:05:54.468Z,2915
2018-08-02T12:06:55.076Z,2890
2018-08-02T12:07:55.666Z,2885
2018-08-02T12:08:56.248Z,2855
2018-08-02T12:09:56.832Z,2840
2018-08-02T12:10:57.417Z,2835
2018-08-02T12:11:58.002Z,2855
2018-08-02T12:12:58.589Z,2870
2018-08-02T12:13:59.172Z,2915
2018-08-02T12:14:59.816Z,2950
2018-08-02T12:16:00.347Z,2950
2018-08-02T12:17:00.932Z,2970
2018-08-02T12:18:01.518Z,2980
2018-08-02T12:19:02.127Z,2990
2018-08-02T12:20:02.715Z,2995
2018-08-02T12:21:03.322Z,2975
2018-08-02T12:22:03.930Z,2955
2018-08-02T12:23:04.496Z,2925
2018-08-02T12:24:05.127Z,2915
2018-08-02T12:25:05.670Z,2895
2018-08-02T12:26:06.255Z,2885
2018-08-02T12:27:06.839Z,2835
2018-08-02T12:28:07.423Z,2815
2018-08-02T12:29:08.066Z,2810
2018-08-02T12:30:08.595Z,2765
2018-08-02T12:31:09.180Z,2735
2018-08-02T12:32:09.766Z,2730
2018-08-02T12:33:10.355Z,2730
2018-08-02T12:34:10.936Z,2730
2018-08-02T12:35:11.522Z,2775
2018-08-02T12:36:12.108Z,2765
2018-08-02T12:37:12.696Z,2560
2018-08-02T12:38:13.328Z,1980
2018-08-02T12:39:13.868Z,1025
2018-08-02T12:40:14.475Z,760
2018-08-02T12:41:15.043Z,685
2018-08-02T12:42:15.630Z,660
2018-08-02T12:43:16.214Z,645
2018-08-02T12:44:16.797Z,640
2018-08-02T12:45:17.381Z,645
2018-08-02T12:46:17.965Z,660
2018-08-02T12:47:18.554Z,670
2018-08-02T12:48:19.135Z,705
2018-08-02T12:49:19.721Z,785
2018-08-02T12:50:20.307Z,975
2018-08-02T12:51:20.892Z,1610
2018-08-02T12:52:21.513Z,2290
2018-08-02T12:53:22.067Z,2570
2018-08-02T12:54:22.707Z,2630
2018-08-02T12:55:23.240Z,2640
2018-08-02T12:56:23.866Z,2640
2018-08-02T12:57:24.460Z,2645
2018-08-02T12:58:25.090Z,2665
2018-08-02T12:59:25.648Z,2680
2018-08-02T13:00:26.256Z,2710
2018-08-02T13:01:26.851Z,2710
2018-08-02T13:02:27.428Z,2695
2018-08-02T13:03:28.015Z,2700
2018-08-02T13:04:28.595Z,2715
2018-08-02T13:05:29.182Z,2715
2018-08-02T13:06:29.770Z,2700
2018-08-02T13:07:30.358Z,2680
2018-08-02T13:08:30.944Z,2660
2018-08-02T13:09:31.530Z,2655
2018-08-02T13:10:32.174Z,2650
2018-08-02T13:11:32.726Z,2605
2018-08-02T13:12:33.311Z,2585
2018-08-02T13:13:33.896Z,2530
2018-08-02T13:14:34.532Z,2545
2018-08-02T13:15:35.104Z,2540
2018-08-02T13:16:35.657Z,2540
2018-08-02T13:17:36.259Z,2520
2018-08-02T13:18:36.846Z,2495
2018-08-02T13:19:37.433Z,2495
2018-08-02T13:20:38.020Z,2480
2018-08-02T13:21:38.605Z,2485
2018-08-02T13:22:39.192Z,2465
2018-08-02T13:23:39.779Z,2495
2018-08-02T13:24:40.468Z,2515
2018-08-02T13:25:40.953Z,2510
2018-08-02T13:26:41.538Z,2495
2018-08-02T13:27:42.123Z,2485
2018-08-02T13:28:42.728Z,2475
2018-08-02T13:29:43.335Z,2470
2018-08-02T13:30:43.922Z,2490
2018-08-02T13:31:44.553Z,2495
2018-08-02T13:32:45.092Z,2510
2018-08-02T13:33:45.678Z,2485
2018-08-02T13:34:46.278Z,2460
2018-08-02T13:35:46.911Z,2450
2018-08-02T13:36:47.434Z,2370
2018-08-02T13:37:48.017Z,2265
2018-08-02T13:38:48.605Z,2295
2018-08-02T13:39:49.191Z,2240
2018-08-02T13:40:49.778Z,2280
2018-08-02T13:41:50.415Z,2300
2018-08-02T13:42:51.015Z,2275
2018-08-02T13:43:51.542Z,2290
2018-08-02T13:44:52.205Z,2345
2018-08-02T13:45:52.713Z,2340
2018-08-02T13:46:53.299Z,2300
2018-08-02T13:47:53.885Z,2370
2018-08-02T13:48:54.472Z,2375
2018-08-02T13:49:55.071Z,2235
2018-08-02T13:50:55.642Z,2165
2018-08-02T13:51:56.233Z,2120
2018-08-02T13:52:56.810Z,2160
2018-08-02T13:53:57.395Z,2100
2018-08-02T13:54:57.984Z,2100
2018-08-02T13:55:58.566Z,2075
2018-08-02T13:56:59.152Z,2170
2018-08-02T13:57:59.737Z,2155
2018-08-02T13:59:00.353Z,2175
2018-08-02T14:00:00.928Z,2250